Time;durP1;ratioP1;P1;durP2;ratioP2;P2;SDS_P1;SDS_P2;PMS_P1;PMS_P2;Temp;Humidity;BMP_temperature;BMP_pressure;BME280_temperature;BME280_humidity;BME280_pressure;Samples;Min_cycle;Max_cycle;Signal;HPM_P1;HPM_P2
2021/04/04 00:00:55;;;;;;;4.25;3.55;;;5.60;77.00;;;;;;5104668;27;20187;-51
2021/04/04 00:03:21;;;;;;;5.07;3.50;;;5.50;77.70;;;;;;5100411;28;20178;-51
2021/04/04 00:05:47;;;;;;;3.57;3.27;;;5.70;77.80;;;;;;5096766;28;20220;-53
2021/04/04 00:08:12;;;;;;;4.00;3.40;;;5.70;78.10;;;;;;5106137;28;20194;-52
2021/04/04 00:10:38;;;;;;;4.00;3.00;;;5.40;77.90;;;;;;5107019;28;20179;-52
2021/04/04 00:13:06;;;;;;;4.07;3.43;;;5.30;78.40;;;;;;5095797;28;20181;-52
2021/04/04 00:15:32;;;;;;;4.50;3.47;;;5.40;78.90;;;;;;5101455;28;20225;-52
2021/04/04 00:17:58;;;;;;;5.00;3.70;;;5.10;78.90;;;;;;5110875;28;20652;-50
2021/04/04 00:20:24;;;;;;;6.00;3.90;;;5.10;79.10;;;;;;5102255;28;20210;-51
2021/04/04 00:22:49;;;;;;;5.57;3.53;;;5.50;80.40;;;;;;5103553;28;20203;-51
2021/04/04 00:25:16;;;;;;;3.50;3.20;;;5.00;80.10;;;;;;5102374;28;20192;-51
2021/04/04 00:27:42;;;;;;;5.95;3.45;;;5.00;81.70;;;;;;5096366;28;20212;-51
2021/04/04 00:30:12;;;;;;;4.03;3.60;;;5.00;81.30;;;;;;5110377;28;20207;-51
2021/04/04 00:32:38;;;;;;;3.88;3.25;;;5.20;81.70;;;;;;5106057;28;20278;-51
2021/04/04 00:35:22;;;;;;;9.20;4.10;;;5.00;82.10;;;;;;5100993;28;20283;-51
2021/04/04 00:37:50;;;;;;;6.28;3.40;;;4.90;81.20;;;;;;5103415;28;20184;-52
2021/04/04 00:40:19;;;;;;;6.20;3.33;;;5.00;81.10;;;;;;5102762;28;20242;-52
2021/04/04 00:42:45;;;;;;;4.85;3.70;;;5.00;81.40;;;;;;5106316;28;20207;-53
2021/04/04 00:45:20;;;;;;;4.50;4.05;;;5.00;82.10;;;;;;5122834;28;20185;-52
2021/04/04 00:47:46;;;;;;;5.80;3.40;;;4.70;81.90;;;;;;5108093;28;20206;-52
2021/04/04 00:50:13;;;;;;;4.10;3.28;;;4.40;81.60;;;;;;5098542;28;20228;-53
2021/04/04 00:52:40;;;;;;;4.15;3.45;;;4.80;82.00;;;;;;5094717;28;20574;-52
2021/04/04 00:55:07;;;;;;;8.23;3.70;;;4.90;82.30;;;;;;5115436;28;20189;-52
2021/04/04 00:57:34;;;;;;;3.80;3.30;;;5.00;82.20;;;;;;5095651;28;20677;-51
2021/04/04 01:00:01;;;;;;;7.97;3.33;;;4.70;82.80;;;;;;5120762;28;20692;-51
2021/04/04 01:02:27;;;;;;;5.00;4.18;;;4.90;82.40;;;;;;5101487;28;20183;-52
2021/04/04 01:04:55;;;;;;;5.22;3.53;;;4.60;83.50;;;;;;5106240;28;20410;-51
2021/04/04 01:07:20;;;;;;;4.47;3.83;;;4.50;84.00;;;;;;5103942;28;20241;-52
2021/04/04 01:09:47;;;;;;;4.60;3.30;;;4.50;84.50;;;;;;5106127;28;20208;-51
2021/04/04 01:12:15;;;;;;;6.55;3.47;;;4.50;84.60;;;;;;5098777;28;20194;-52
2021/04/04 01:14:59;;;;;;;4.85;3.15;;;4.70;84.90;;;;;;5100163;28;20185;-51
2021/04/04 01:17:27;;;;;;;6.82;3.80;;;4.50;84.50;;;;;;5095118;28;20191;-51
2021/04/04 01:20:07;;;;;;;5.45;3.80;;;4.60;84.80;;;;;;5095876;28;20249;-51
2021/04/04 01:22:53;;;;;;;4.10;3.55;;;4.40;84.50;;;;;;5103275;28;20695;-50
2021/04/04 01:25:38;;;;;;;3.80;3.13;;;4.40;84.70;;;;;;5095848;27;20195;-52
2021/04/04 01:28:21;;;;;;;4.43;3.30;;;4.50;85.20;;;;;;5102157;27;20194;-52
2021/04/04 01:30:50;;;;;;;4.55;3.50;;;4.40;85.10;;;;;;5109738;27;20251;-52
2021/04/04 01:33:18;;;;;;;3.60;3.30;;;4.50;85.00;;;;;;5104719;27;20187;-51
2021/04/04 01:35:48;;;;;;;3.72;2.95;;;4.60;85.30;;;;;;5105267;27;20190;-50
2021/04/04 01:38:19;;;;;;;3.60;3.30;;;4.50;85.50;;;;;;5102586;27;20554;-51
2021/04/04 01:40:49;;;;;;;6.13;3.55;;;4.50;85.50;;;;;;5097706;27;20340;-52
2021/04/04 01:43:16;;;;;;;5.43;3.35;;;4.20;84.90;;;;;;5110109;27;20583;-50
2021/04/04 01:45:44;;;;;;;5.90;3.50;;;4.30;85.70;;;;;;5111653;27;20172;-50
2021/04/04 01:48:13;;;;;;;4.18;3.75;;;4.10;86.40;;;;;;5099221;27;20177;-52
2021/04/04 01:50:40;;;;;;;4.55;3.53;;;4.10;86.20;;;;;;5112942;27;20182;-51
2021/04/04 01:53:07;;;;;;;3.67;2.95;;;4.20;87.00;;;;;;5119673;27;20652;-52
2021/04/04 01:55:33;;;;;;;3.75;3.30;;;4.20;87.20;;;;;;5110270;27;20560;-51
2021/04/04 01:58:00;;;;;;;4.60;3.07;;;3.80;86.90;;;;;;5104906;27;20184;-51
2021/04/04 02:00:27;;;;;;;4.72;2.83;;;3.60;87.60;;;;;;5105269;27;20473;-52
2021/04/04 02:02:55;;;;;;;6.25;3.40;;;3.90;87.90;;;;;;5106601;27;20198;-51
2021/04/04 02:05:24;;;;;;;8.77;3.80;;;4.00;87.90;;;;;;5106580;27;20265;-51
2021/04/04 02:07:51;;;;;;;4.55;3.90;;;3.90;88.70;;;;;;5111539;27;20187;-51
2021/04/04 02:10:22;;;;;;;3.67;3.25;;;3.80;88.90;;;;;;5099017;27;20468;-50
2021/04/04 02:12:50;;;;;;;4.03;3.22;;;3.90;88.60;;;;;;5108033;28;20232;-51
2021/04/04 02:15:19;;;;;;;4.75;3.03;;;4.10;89.00;;;;;;5107127;27;20194;-51
2021/04/04 02:17:47;;;;;;;3.95;2.75;;;4.10;88.00;;;;;;5105804;27;20207;-51
2021/04/04 02:20:16;;;;;;;5.07;3.40;;;3.80;88.30;;;;;;5103521;27;20294;-50
2021/04/04 02:22:42;;;;;;;4.75;2.90;;;3.90;88.40;;;;;;5098331;28;20192;-52
2021/04/04 02:25:10;;;;;;;4.50;3.03;;;3.80;88.80;;;;;;5105042;27;20183;-51
2021/04/04 02:27:37;;;;;;;2.92;2.70;;;3.80;89.90;;;;;;5112768;27;20179;-52
2021/04/04 02:30:06;;;;;;;4.85;3.40;;;4.00;89.90;;;;;;5126122;27;20645;-52
2021/04/04 02:32:40;;;;;;;3.38;2.78;;;4.00;89.00;;;;;;5103352;28;20706;-51
2021/04/04 02:35:10;;;;;;;3.50;3.00;;;3.70;88.90;;;;;;5125061;27;20225;-51
2021/04/04 02:37:38;;;;;;;3.97;2.60;;;4.00;88.70;;;;;;5110959;27;20185;-53
2021/04/04 02:40:08;;;;;;;3.30;2.60;;;3.90;89.60;;;;;;5101567;28;20210;-52
2021/04/04 02:42:37;;;;;;;5.05;3.47;;;3.50;89.40;;;;;;5103134;28;20184;-53
2021/04/04 02:45:05;;;;;;;3.40;2.50;;;3.70;89.20;;;;;;5101343;28;20212;-53
2021/04/04 02:48:10;;;;;;;4.07;3.15;;;3.90;89.80;;;;;;5106907;27;20224;-53
2021/04/04 02:50:37;;;;;;;4.10;3.13;;;3.60;89.30;;;;;;5055460;27;20195;-52
2021/04/04 02:53:04;;;;;;;5.95;3.10;;;3.50;90.10;;;;;;5111402;27;20282;-52
2021/04/04 02:55:34;;;;;;;3.65;2.72;;;3.60;90.20;;;;;;5106404;27;20175;-51
2021/04/04 02:58:06;;;;;;;5.95;3.78;;;3.70;89.70;;;;;;5111205;27;20249;-52
2021/04/04 03:00:35;;;;;;;3.80;3.38;;;3.70;90.00;;;;;;5095866;27;20228;-52
2021/04/04 03:03:03;;;;;;;3.83;3.40;;;3.50;90.20;;;;;;5103509;28;20186;-52
2021/04/04 03:05:30;;;;;;;5.05;2.70;;;3.60;90.40;;;;;;5098155;28;20287;-52
2021/04/04 03:07:57;;;;;;;5.57;3.40;;;3.50;90.40;;;;;;5104815;28;20676;-52
2021/04/04 03:10:23;;;;;;;5.25;3.00;;;3.40;90.30;;;;;;5108301;27;20649;-53
2021/04/04 03:12:51;;;;;;;4.40;3.10;;;3.40;90.40;;;;;;5104062;27;20215;-52
2021/04/04 03:15:18;;;;;;;3.53;2.90;;;3.40;90.70;;;;;;5128265;27;20449;-52
2021/04/04 03:17:45;;;;;;;4.05;3.20;;;3.30;90.70;;;;;;5105370;27;20183;-53
2021/04/04 03:20:13;;;;;;;4.82;2.90;;;3.60;90.70;;;;;;5101815;27;20200;-52
2021/04/04 03:22:47;;;;;;;7.85;3.42;;;3.50;90.90;;;;;;5107001;28;20190;-53
2021/04/04 03:25:13;;;;;;;4.88;3.13;;;3.30;91.00;;;;;;5094030;28;20200;-51
2021/04/04 03:27:45;;;;;;;5.50;3.13;;;3.60;91.40;;;;;;5100463;27;20187;-52
2021/04/04 03:30:35;;;;;;;5.25;3.25;;;3.50;91.40;;;;;;5112678;27;20202;-52
2021/04/04 03:33:05;;;;;;;3.72;2.97;;;3.50;91.10;;;;;;5102063;28;20214;-52
2021/04/04 03:35:32;;;;;;;7.30;3.20;;;3.30;91.10;;;;;;5109577;27;20591;-52
2021/04/04 03:38:00;;;;;;;7.93;3.40;;;3.40;91.10;;;;;;5112916;27;20641;-52
2021/04/04 03:40:26;;;;;;;5.50;3.17;;;2.90;91.00;;;;;;5106545;27;20206;-52
2021/04/04 03:42:53;;;;;;;2.72;2.53;;;3.40;91.00;;;;;;5107344;27;20526;-51
2021/04/04 03:45:20;;;;;;;5.30;2.80;;;3.50;91.30;;;;;;5104723;27;20645;-51
2021/04/04 03:47:48;;;;;;;4.72;3.20;;;3.30;91.20;;;;;;5110894;27;20259;-51
2021/04/04 03:50:17;;;;;;;3.55;3.10;;;3.30;91.20;;;;;;5100539;28;20203;-51
2021/04/04 03:52:45;;;;;;;4.22;3.35;;;3.40;91.10;;;;;;5097665;28;20568;-51
2021/04/04 03:55:12;;;;;;;4.70;3.58;;;3.40;91.20;;;;;;5105762;28;21000;-51
2021/04/04 03:57:38;;;;;;;3.83;2.88;;;3.50;91.10;;;;;;5094878;27;20312;-51
2021/04/04 04:00:07;;;;;;;5.47;2.85;;;3.30;91.20;;;;;;5102295;27;20211;-51
2021/04/04 04:02:35;;;;;;;4.97;3.35;;;3.50;91.40;;;;;;5111114;27;20175;-51
2021/04/04 04:05:02;;;;;;;7.03;2.97;;;3.30;91.10;;;;;;5107426;27;20194;-51
2021/04/04 04:07:30;;;;;;;3.90;3.10;;;3.30;91.20;;;;;;5099443;28;20252;-52
2021/04/04 04:09:58;;;;;;;3.67;3.03;;;3.10;91.70;;;;;;5107508;28;20568;-51
2021/04/04 04:12:25;;;;;;;5.68;3.35;;;3.00;91.40;;;;;;5098002;28;20290;-51
2021/04/04 04:14:51;;;;;;;3.78;2.97;;;3.00;91.70;;;;;;5095862;28;20760;-51
2021/04/04 04:17:18;;;;;;;6.93;2.65;;;3.20;91.80;;;;;;5113803;28;20210;-52
2021/04/04 04:19:44;;;;;;;2.97;2.67;;;3.10;92.10;;;;;;5110410;28;20260;-52
2021/04/04 04:22:10;;;;;;;3.83;2.65;;;3.00;91.70;;;;;;5110028;28;20214;-52
2021/04/04 04:24:36;;;;;;;3.72;2.72;;;3.00;91.70;;;;;;5106441;28;20270;-52
2021/04/04 04:27:04;;;;;;;4.78;2.92;;;3.30;92.30;;;;;;5104730;28;20547;-52
2021/04/04 04:29:31;;;;;;;2.90;2.70;;;3.10;92.30;;;;;;5096079;28;20199;-52
2021/04/04 04:32:01;;;;;;;5.35;3.13;;;3.20;92.00;;;;;;5102666;28;20195;-52
2021/04/04 04:34:29;;;;;;;3.83;2.80;;;3.20;92.30;;;;;;5106453;28;20303;-51
2021/04/04 04:36:56;;;;;;;4.78;2.80;;;3.00;92.10;;;;;;5104658;28;20203;-52
2021/04/04 04:39:23;;;;;;;3.65;2.97;;;3.10;91.70;;;;;;5103642;28;20195;-52
2021/04/04 04:41:50;;;;;;;7.00;3.05;;;3.10;92.30;;;;;;5107453;28;20732;-52
2021/04/04 04:44:28;;;;;;;3.70;3.00;;;3.10;92.50;;;;;;5109427;28;20632;-52
2021/04/04 04:46:54;;;;;;;5.50;3.05;;;3.00;92.00;;;;;;5104513;28;20183;-51
2021/04/04 04:49:21;;;;;;;5.57;2.80;;;3.00;92.30;;;;;;5098908;28;20611;-51
2021/04/04 04:51:47;;;;;;;5.75;3.33;;;2.80;92.00;;;;;;5099827;28;20298;-52
2021/04/04 04:54:13;;;;;;;9.32;3.05;;;2.90;92.20;;;;;;5102573;28;20187;-52
2021/04/04 04:56:40;;;;;;;3.73;2.90;;;2.80;92.60;;;;;;5108440;27;20167;-52
2021/04/04 04:59:07;;;;;;;3.60;3.10;;;3.10;92.80;;;;;;5130915;27;20233;-50
2021/04/04 05:01:45;;;;;;;5.03;3.17;;;2.90;92.70;;;;;;5113096;27;20202;-51
2021/04/04 05:04:11;;;;;;;4.22;2.85;;;3.00;92.80;;;;;;5103220;27;20186;-52
2021/04/04 05:06:38;;;;;;;5.22;3.17;;;3.00;92.90;;;;;;5110172;27;20214;-52
2021/04/04 05:09:06;;;;;;;4.72;2.40;;;2.90;92.80;;;;;;5109067;28;20254;-50
2021/04/04 05:11:33;;;;;;;4.93;2.95;;;2.70;92.80;;;;;;5098739;27;20198;-50
2021/04/04 05:13:59;;;;;;;5.10;2.80;;;2.90;92.90;;;;;;5107161;27;20179;-52
2021/04/04 05:16:29;;;;;;;4.63;3.30;;;3.00;93.00;;;;;;5103154;27;20273;-52
2021/04/04 05:18:54;;;;;;;3.47;2.95;;;3.00;93.00;;;;;;5100578;28;20239;-51
2021/04/04 05:21:23;;;;;;;4.37;3.00;;;3.30;92.90;;;;;;5107605;27;20221;-52
2021/04/04 05:24:01;;;;;;;3.35;2.60;;;3.00;92.60;;;;;;5105842;28;20231;-52
2021/04/04 05:26:33;;;;;;;4.55;2.80;;;3.10;92.90;;;;;;5106868;27;20594;-51
2021/04/04 05:29:09;;;;;;;4.97;3.60;;;3.00;92.80;;;;;;5103851;27;20554;-51
2021/04/04 05:31:53;;;;;;;5.22;3.13;;;2.80;92.40;;;;;;5099115;27;20241;-51
2021/04/04 05:34:21;;;;;;;3.55;2.85;;;2.90;92.50;;;;;;5104140;27;20629;-51
2021/04/04 05:36:51;;;;;;;3.30;2.72;;;2.50;92.50;;;;;;5104923;27;20274;-52
2021/04/04 05:39:19;;;;;;;3.10;2.80;;;2.80;92.60;;;;;;5106674;27;20243;-51
2021/04/04 05:41:52;;;;;;;2.80;2.60;;;3.10;92.70;;;;;;5097767;27;20229;-53
2021/04/04 05:44:50;;;;;;;3.90;2.90;;;2.20;92.40;;;;;;5112412;27;20659;-53
2021/04/04 05:47:44;;;;;;;4.38;2.70;;;3.00;93.20;;;;;;5097122;27;20245;-54
2021/04/04 05:50:24;;;;;;;4.45;3.10;;;2.80;92.70;;;;;;5123814;27;20203;-52
2021/04/04 05:53:01;;;;;;;4.25;3.20;;;3.10;93.10;;;;;;5105922;27;20531;-52
2021/04/04 05:55:27;;;;;;;5.30;3.33;;;3.00;93.10;;;;;;5105424;27;20190;-52
2021/04/04 05:57:54;;;;;;;6.83;3.20;;;3.00;93.00;;;;;;5105568;27;20195;-52
2021/04/04 06:00:23;;;;;;;6.80;3.47;;;3.30;93.10;;;;;;5105692;27;20248;-51
2021/04/04 06:03:26;;;;;;;3.90;3.25;;;3.30;92.80;;;;;;5108000;27;20191;-51
2021/04/04 06:06:23;;;;;;;3.50;2.80;;;3.30;92.50;;;;;;5108667;27;20199;-52
2021/04/04 06:09:11;;;;;;;4.82;2.95;;;3.30;92.40;;;;;;5103326;27;20210;-52
2021/04/04 06:11:45;;;;;;;7.00;3.55;;;3.70;92.50;;;;;;5102586;27;20207;-51
2021/04/04 06:14:27;;;;;;;5.55;3.40;;;4.10;92.30;;;;;;5106346;27;20236;-52
2021/04/04 06:17:12;;;;;;;5.65;3.45;;;4.10;91.90;;;;;;5106308;27;20338;-52
2021/04/04 06:19:54;;;;;;;7.38;3.35;;;4.20;91.60;;;;;;5106730;27;20212;-50
2021/04/04 06:22:27;;;;;;;5.97;3.92;;;4.50;91.20;;;;;;5108084;27;20270;-53
2021/04/04 06:25:05;;;;;;;5.85;3.58;;;4.60;91.00;;;;;;5101679;27;20187;-53
2021/04/04 06:27:39;;;;;;;5.85;3.40;;;5.20;90.70;;;;;;5124215;27;20191;-54
2021/04/04 06:33:02;;;;;;;4.53;3.47;;;5.10;88.50;;;;;;5120430;27;20216;-54
2021/04/04 06:35:39;;;;;;;8.80;4.22;;;5.20;88.50;;;;;;5123398;27;20210;-54
2021/04/04 06:38:14;;;;;;;5.13;3.50;;;5.60;87.30;;;;;;5102217;27;20181;-54
2021/04/04 06:41:17;;;;;;;5.30;3.90;;;5.70;85.50;;;;;;5106349;27;20184;-54
2021/04/04 06:44:17;;;;;;;7.20;4.60;;;6.50;83.90;;;;;;5107543;27;20182;-54
2021/04/04 06:46:43;;;;;;;5.65;4.10;;;6.80;80.30;;;;;;5103813;27;20194;-54
2021/04/04 06:49:46;;;;;;;6.70;4.00;;;7.30;79.00;;;;;;5105625;27;20203;-54
2021/04/04 06:52:59;;;;;;;4.50;3.80;;;8.00;77.20;;;;;;5106936;27;20683;-54
2021/04/04 06:55:48;;;;;;;6.70;4.32;;;8.40;73.80;;;;;;5022245;28;20194;-54
2021/04/04 06:58:32;;;;;;;4.72;4.22;;;8.90;70.80;;;;;;5101055;27;20193;-54
2021/04/04 07:01:29;;;;;;;5.93;4.50;;;8.80;68.70;;;;;;5104187;27;20179;-55
2021/04/04 07:04:01;;;;;;;6.07;3.85;;;8.80;66.30;;;;;;5103809;27;20781;-54
2021/04/04 07:06:26;;;;;;;5.10;4.10;;;10.50;64.60;;;;;;5105649;27;20182;-54
2021/04/04 07:09:23;;;;;;;4.70;3.80;;;12.50;58.70;;;;;;5118717;27;20583;-55
2021/04/04 07:12:12;;;;;;;5.13;4.60;;;13.80;54.00;;;;;;5103692;27;20302;-55
2021/04/04 07:14:40;;;;;;;7.40;4.50;;;13.40;53.10;;;;;;5102478;27;20186;-53
2021/04/04 07:17:13;;;;;;;5.55;4.30;;;13.30;50.50;;;;;;5102590;27;20232;-52
2021/04/04 07:20:12;;;;;;;7.03;4.60;;;15.50;50.50;;;;;;5106761;27;20200;-53
2021/04/04 07:22:50;;;;;;;9.13;5.00;;;16.60;47.50;;;;;;5098672;27;20275;-53
2021/04/04 07:25:26;;;;;;;6.32;4.85;;;16.50;46.80;;;;;;5107149;27;20182;-53
2021/04/04 07:28:29;;;;;;;5.38;4.53;;;16.30;46.40;;;;;;5106420;27;20703;-53
2021/04/04 07:31:00;;;;;;;9.50;5.18;;;16.10;46.60;;;;;;5097071;27;20561;-54
2021/04/04 07:33:48;;;;;;;6.10;4.78;;;17.60;45.20;;;;;;5102950;27;20255;-54
2021/04/04 07:36:28;;;;;;;6.72;5.95;;;16.30;43.50;;;;;;5096486;28;20683;-55
2021/04/04 07:39:25;;;;;;;8.02;5.72;;;18.00;44.70;;;;;;5104039;27;20242;-54
2021/04/04 07:41:56;;;;;;;7.70;6.47;;;20.20;41.80;;;;;;5100810;27;20251;-55
2021/04/04 07:44:24;;;;;;;6.40;5.80;;;21.10;40.10;;;;;;5099391;27;20440;-55
2021/04/04 07:47:27;;;;;;;7.07;6.37;;;22.10;38.60;;;;;;5106009;27;20498;-57
2021/04/04 07:50:02;;;;;;;8.67;7.13;;;21.10;37.50;;;;;;5098459;28;20456;-57
2021/04/04 07:52:52;;;;;;;7.47;6.13;;;20.10;38.40;;;;;;5106952;27;20842;-57
2021/04/04 07:55:25;;;;;;;7.10;6.40;;;21.00;38.30;;;;;;5102984;28;20433;-58
2021/04/04 07:58:06;;;;;;;7.57;5.80;;;20.20;37.50;;;;;;5107048;27;20519;-53
2021/04/04 08:00:35;;;;;;;7.10;4.83;;;21.70;38.00;;;;;;5101381;28;20964;-55
2021/04/04 08:03:32;;;;;;;6.60;5.87;;;21.50;38.80;;;;;;5105054;28;20448;-53
2021/04/04 08:06:06;;;;;;;7.60;5.63;;;21.10;37.50;;;;;;5099918;27;20444;-52
2021/04/04 08:09:11;;;;;;;10.43;5.40;;;21.40;37.50;;;;;;5117539;27;20980;-52
2021/04/04 08:11:50;;;;;;;6.10;4.90;;;21.90;36.60;;;;;;5084361;27;20506;-51
2021/04/04 08:14:27;;;;;;;6.10;5.50;;;20.80;37.70;;;;;;5097785;28;20494;-53
2021/04/04 08:16:57;;;;;;;5.83;4.87;;;21.00;37.40;;;;;;5102841;28;20447;-53
2021/04/04 08:19:25;;;;;;;6.70;5.30;;;21.70;36.30;;;;;;5100306;28;20444;-53
2021/04/04 08:22:05;;;;;;;6.30;5.30;;;22.40;35.70;;;;;;5102027;28;20887;-53
2021/04/04 08:24:39;;;;;;;7.40;6.47;;;20.40;36.70;;;;;;5101346;28;20440;-51
2021/04/04 08:27:23;;;;;;;6.90;5.30;;;20.50;37.00;;;;;;5100767;28;20929;-51
2021/04/04 08:30:11;;;;;;;7.73;6.63;;;21.00;36.80;;;;;;5104240;27;20502;-53
2021/04/04 08:32:47;;;;;;;8.10;6.80;;;21.90;37.10;;;;;;5105113;27;20463;-53
2021/04/04 08:35:26;;;;;;;8.03;6.40;;;20.80;36.20;;;;;;5103139;27;20855;-53
2021/04/04 08:38:13;;;;;;;6.13;5.40;;;20.60;37.60;;;;;;5105533;27;20629;-54
2021/04/04 08:40:40;;;;;;;7.50;6.80;;;21.70;36.10;;;;;;5103435;27;20435;-53
2021/04/04 08:43:07;;;;;;;6.60;6.00;;;21.70;36.10;;;;;;5102564;27;20431;-53
2021/04/04 08:45:35;;;;;;;6.97;6.33;;;22.70;35.60;;;;;;5104162;27;20525;-55
2021/04/04 08:48:02;;;;;;;6.70;6.00;;;23.80;34.10;;;;;;5100427;27;20470;-54
2021/04/04 08:50:32;;;;;;;7.97;6.03;;;23.90;33.50;;;;;;5102184;27;20470;-55
2021/04/04 08:53:30;;;;;;;7.50;5.90;;;22.30;35.00;;;;;;5100129;27;20580;-55
2021/04/04 08:55:56;;;;;;;7.10;6.47;;;23.40;34.00;;;;;;5102141;27;20443;-53
2021/04/04 08:58:39;;;;;;;8.63;6.70;;;23.70;33.40;;;;;;5100786;27;20463;-54
2021/04/04 09:01:31;;;;;;;8.90;6.90;;;23.10;33.40;;;;;;5105400;27;20455;-54
2021/04/04 09:04:00;;;;;;;6.20;5.60;;;21.90;34.40;;;;;;5105547;27;20436;-54
2021/04/04 09:06:38;;;;;;;14.77;6.23;;;21.40;34.80;;;;;;5120658;27;20432;-54
2021/04/04 09:09:14;;;;;;;8.60;6.50;;;20.70;36.10;;;;;;5103158;27;20443;-55
2021/04/04 09:11:41;;;;;;;6.57;5.87;;;21.00;36.60;;;;;;5096922;27;20471;-54
2021/04/04 09:14:07;;;;;;;5.47;4.50;;;21.10;36.10;;;;;;5119950;27;20433;-54
2021/04/04 09:16:32;;;;;;;6.37;5.20;;;20.60;35.30;;;;;;5100213;27;20553;-54
2021/04/04 09:18:58;;;;;;;7.37;5.90;;;20.20;36.00;;;;;;5102942;27;20491;-52
2021/04/04 09:21:25;;;;;;;7.27;5.67;;;19.00;37.60;;;;;;5117580;27;20554;-53
2021/04/04 09:23:54;;;;;;;7.30;4.75;;;17.50;39.20;;;;;;5100288;27;20180;-55
2021/04/04 09:26:23;;;;;;;6.88;5.65;;;17.40;38.90;;;;;;5100837;27;20179;-58
2021/04/04 09:28:51;;;;;;;4.93;4.53;;;17.00;39.90;;;;;;5103463;27;20246;-54
2021/04/04 09:31:30;;;;;;;5.40;4.57;;;16.80;40.50;;;;;;5102804;27;20603;-52
2021/04/04 09:34:05;;;;;;;5.28;4.60;;;16.10;40.50;;;;;;5102599;27;20216;-53
2021/04/04 09:36:51;;;;;;;7.78;4.90;;;16.00;42.20;;;;;;5130705;27;20221;-52
2021/04/04 09:39:20;;;;;;;5.05;3.58;;;15.30;42.30;;;;;;5108738;27;20256;-52
2021/04/04 09:41:47;;;;;;;2.80;2.60;;;15.20;40.80;;;;;;5102373;27;20542;-54
2021/04/04 09:44:13;;;;;;;6.30;4.10;;;15.30;39.50;;;;;;5096600;27;20179;-54
2021/04/04 09:46:58;;;;;;;3.73;3.23;;;15.30;40.90;;;;;;5102413;27;20186;-53
2021/04/04 09:49:34;;;;;;;5.40;3.70;;;15.60;40.10;;;;;;5105273;27;20460;-51
2021/04/04 09:51:59;;;;;;;3.38;2.60;;;15.30;40.20;;;;;;5120371;27;20222;-52
2021/04/04 09:54:25;;;;;;;3.13;2.63;;;15.70;39.30;;;;;;5099995;27;20198;-52
2021/04/04 09:56:57;;;;;;;4.03;2.70;;;16.50;36.70;;;;;;5119910;27;20211;-56
2021/04/04 09:59:27;;;;;;;3.10;2.90;;;16.80;36.40;;;;;;5099330;27;20453;-51
2021/04/04 10:01:53;;;;;;;3.17;2.88;;;17.60;36.00;;;;;;5104357;27;20201;-54
2021/04/04 10:04:18;;;;;;;5.70;3.33;;;17.20;36.70;;;;;;5122444;27;20633;-54
2021/04/04 10:07:02;;;;;;;2.87;2.57;;;17.50;36.30;;;;;;5102490;27;20191;-53
2021/04/04 10:09:38;;;;;;;3.38;2.92;;;18.50;33.30;;;;;;5100482;27;20207;-54
2021/04/04 10:12:05;;;;;;;5.88;3.97;;;18.40;33.30;;;;;;5101074;27;20243;-54
2021/04/04 10:14:31;;;;;;;4.75;4.32;;;18.10;35.00;;;;;;5100293;27;20291;-54
2021/04/04 10:17:11;;;;;;;5.80;3.70;;;17.80;35.90;;;;;;5117909;27;20195;-52
2021/04/04 10:19:57;;;;;;;5.35;4.40;;;17.90;35.30;;;;;;5096291;28;20551;-54
2021/04/04 10:22:23;;;;;;;5.35;3.67;;;17.90;35.20;;;;;;5098396;27;20213;-52
2021/04/04 10:24:49;;;;;;;2.70;2.00;;;17.60;34.60;;;;;;5101761;27;20183;-52
2021/04/04 10:27:29;;;;;;;3.17;2.75;;;17.50;33.30;;;;;;5098969;27;20562;-54
2021/04/04 10:30:18;;;;;;;2.47;2.22;;;17.60;33.70;;;;;;5101355;27;20293;-54
2021/04/04 10:32:49;;;;;;;3.17;2.88;;;17.40;32.80;;;;;;5121316;27;20351;-56
2021/04/04 10:35:33;;;;;;;3.45;2.83;;;17.50;32.70;;;;;;5111667;27;20539;-53
2021/04/04 10:38:20;;;;;;;4.18;2.33;;;18.20;33.00;;;;;;5111354;27;20517;-54
2021/04/04 10:40:47;;;;;;;3.45;2.78;;;18.40;32.30;;;;;;5102919;27;20185;-54
2021/04/04 10:43:13;;;;;;;3.10;2.75;;;18.50;32.30;;;;;;5099752;27;20187;-52
2021/04/04 10:45:59;;;;;;;4.22;3.25;;;18.40;32.80;;;;;;5098879;27;20202;-54
2021/04/04 10:48:26;;;;;;;3.95;3.03;;;17.30;34.50;;;;;;5104264;27;20203;-54
2021/04/04 10:50:52;;;;;;;4.03;2.97;;;17.80;34.00;;;;;;5098920;27;20189;-53
2021/04/04 10:53:19;;;;;;;3.40;3.10;;;18.20;33.80;;;;;;5098445;27;20653;-50
2021/04/04 10:55:49;;;;;;;5.00;3.40;;;18.50;33.20;;;;;;5122336;27;20284;-51
2021/04/04 10:58:19;;;;;;;3.85;3.08;;;18.40;32.70;;;;;;5101202;27;20193;-52
2021/04/04 11:00:45;;;;;;;3.47;2.78;;;18.40;32.70;;;;;;5104334;27;20548;-52
2021/04/04 11:03:11;;;;;;;3.50;2.90;;;18.40;33.40;;;;;;5097002;27;20236;-51
2021/04/04 11:05:37;;;;;;;3.50;3.20;;;18.70;32.10;;;;;;5106919;27;20189;-50
2021/04/04 11:08:06;;;;;;;3.10;2.90;;;17.90;32.00;;;;;;5101069;27;20197;-50
2021/04/04 11:10:31;;;;;;;4.10;3.05;;;17.90;32.90;;;;;;5095956;27;20183;-51
2021/04/04 11:13:00;;;;;;;2.93;2.67;;;17.80;33.50;;;;;;5109660;27;20198;-50
2021/04/04 11:15:36;;;;;;;3.58;3.28;;;17.90;34.00;;;;;;5098270;28;20541;-50
2021/04/04 11:18:10;;;;;;;4.07;3.67;;;17.90;34.40;;;;;;5102409;27;20175;-51
2021/04/04 11:20:37;;;;;;;3.70;3.40;;;17.60;33.70;;;;;;5104538;28;20186;-51
2021/04/04 11:23:04;;;;;;;4.32;3.05;;;17.70;34.40;;;;;;5117999;27;20183;-50
2021/04/04 11:25:31;;;;;;;3.78;3.00;;;17.40;34.30;;;;;;5118694;27;20190;-51
2021/04/04 11:27:57;;;;;;;3.50;3.15;;;17.20;34.50;;;;;;5104163;27;20277;-50
2021/04/04 11:30:32;;;;;;;3.10;2.90;;;17.10;34.50;;;;;;5103098;27;20317;-51
2021/04/04 11:33:18;;;;;;;4.15;3.30;;;17.20;34.80;;;;;;5103344;27;20471;-51
2021/04/04 11:36:01;;;;;;;3.15;2.85;;;17.50;34.90;;;;;;5107239;27;20186;-50
2021/04/04 11:38:29;;;;;;;3.47;3.17;;;17.30;34.20;;;;;;5106345;27;20571;-50
2021/04/04 11:41:14;;;;;;;4.43;2.83;;;17.40;33.70;;;;;;5106171;27;20186;-51
2021/04/04 11:43:41;;;;;;;3.20;3.00;;;17.30;33.60;;;;;;5097558;28;20179;-51
2021/04/04 11:46:46;;;;;;;4.05;3.50;;;17.40;34.80;;;;;;5101401;27;20199;-51
2021/04/04 11:49:30;;;;;;;3.88;3.38;;;17.50;35.90;;;;;;5105817;27;20235;-51
2021/04/04 11:52:21;;;;;;;4.18;3.47;;;17.60;35.10;;;;;;5100097;27;20202;-51
2021/04/04 11:54:49;;;;;;;4.78;3.65;;;17.40;35.20;;;;;;5095759;28;20184;-51
2021/04/04 11:57:24;;;;;;;5.35;3.70;;;17.60;35.30;;;;;;5096689;27;20184;-51
2021/04/04 11:59:54;;;;;;;3.70;3.40;;;17.30;35.00;;;;;;5109105;27;20208;-50
2021/04/04 12:02:22;;;;;;;4.35;3.95;;;17.40;35.50;;;;;;5108398;27;20187;-51
2021/04/04 12:05:16;;;;;;;4.50;4.10;;;17.30;35.20;;;;;;5100115;27;20199;-50
2021/04/04 12:07:47;;;;;;;4.70;3.75;;;17.10;35.90;;;;;;5100366;27;20213;-51
2021/04/04 12:10:36;;;;;;;3.70;3.40;;;17.00;35.90;;;;;;5099820;28;20663;-51
2021/04/04 12:13:11;;;;;;;4.85;3.30;;;16.80;36.60;;;;;;5099938;28;20210;-53
2021/04/04 12:15:37;;;;;;;5.63;3.60;;;16.40;36.60;;;;;;5102816;28;20205;-53
2021/04/04 12:18:03;;;;;;;3.70;3.17;;;16.00;36.60;;;;;;5101314;28;20175;-53
2021/04/04 12:20:34;;;;;;;4.13;3.72;;;15.80;37.00;;;;;;5103336;28;20195;-54
2021/04/04 12:23:01;;;;;;;4.53;3.35;;;15.60;37.40;;;;;;5095137;28;20185;-54
2021/04/04 12:25:29;;;;;;;3.40;3.10;;;15.20;37.40;;;;;;5095776;28;20660;-55
2021/04/04 12:27:57;;;;;;;3.53;3.22;;;15.50;38.90;;;;;;5097194;28;20191;-55
2021/04/04 12:30:23;;;;;;;4.25;3.70;;;15.60;38.40;;;;;;5097163;28;20825;-55
2021/04/04 12:32:58;;;;;;;5.13;3.93;;;15.30;37.80;;;;;;5120099;28;20214;-55
2021/04/04 12:35:24;;;;;;;5.68;3.55;;;15.40;38.20;;;;;;5106736;28;20236;-54
2021/04/04 12:37:50;;;;;;;4.47;3.30;;;15.30;38.00;;;;;;5118516;28;20219;-54
2021/04/04 12:40:15;;;;;;;4.30;3.40;;;15.50;38.20;;;;;;5103442;28;20203;-54
2021/04/04 12:42:41;;;;;;;3.97;3.10;;;15.50;37.80;;;;;;5106473;28;20180;-55
2021/04/04 12:45:13;;;;;;;4.40;3.80;;;15.40;37.70;;;;;;5102189;28;20198;-54
2021/04/04 12:47:40;;;;;;;4.75;3.28;;;15.80;37.80;;;;;;5091732;28;20445;-55
2021/04/04 12:50:15;;;;;;;5.03;3.70;;;15.50;37.10;;;;;;5091631;28;20245;-54
2021/04/04 12:52:43;;;;;;;5.07;3.30;;;15.40;37.60;;;;;;5101909;28;20250;-53
2021/04/04 12:55:16;;;;;;;4.57;3.50;;;15.50;38.90;;;;;;5101117;28;20584;-55
2021/04/04 12:57:43;;;;;;;7.32;5.10;;;15.30;38.70;;;;;;5099123;28;20202;-55
2021/04/04 13:00:17;;;;;;;4.15;3.42;;;15.10;39.00;;;;;;5108812;28;20210;-54
2021/04/04 13:02:51;;;;;;;3.63;2.90;;;15.00;38.60;;;;;;5105669;28;20186;-55
2021/04/04 13:05:17;;;;;;;3.47;2.85;;;15.00;38.50;;;;;;5108023;28;20179;-56
2021/04/04 13:07:43;;;;;;;3.57;3.20;;;15.40;38.70;;;;;;5100263;28;20689;-56
2021/04/04 13:10:10;;;;;;;4.50;3.50;;;15.30;38.60;;;;;;5099438;28;20456;-56
2021/04/04 13:12:40;;;;;;;5.10;4.47;;;15.00;38.80;;;;;;5120304;28;20255;-54
2021/04/04 13:15:07;;;;;;;4.65;4.13;;;15.00;38.90;;;;;;5105874;28;20186;-56
2021/04/04 13:17:42;;;;;;;3.83;3.40;;;15.00;39.80;;;;;;5100280;27;20242;-54
2021/04/04 13:20:09;;;;;;;3.90;3.33;;;15.00;39.00;;;;;;5107790;27;20671;-55
2021/04/04 13:22:36;;;;;;;3.20;3.00;;;15.00;37.90;;;;;;5100950;27;20190;-54
2021/04/04 13:25:07;;;;;;;5.10;4.40;;;14.90;37.70;;;;;;5110757;27;20186;-56